createdAt,value
2022-09-18T00:07:46.505Z,11.70
2022-09-18T00:17:51.480Z,11.70
2022-09-18T00:27:56.189Z,11.70
2022-09-18T00:38:01.114Z,11.70
2022-09-18T00:48:05.532Z,11.70
2022-09-18T00:58:12.694Z,11.50
2022-09-18T01:08:31.572Z,11.50
2022-09-18T01:18:46.784Z,11.40
2022-09-18T01:28:58.793Z,11.40
2022-09-18T01:39:08.099Z,11.40
2022-09-18T01:49:17.354Z,11.40
2022-09-18T01:59:25.554Z,11.40
2022-09-18T02:09:36.728Z,11.40
2022-09-18T02:19:45.470Z,11.50
2022-09-18T02:29:51.234Z,11.50
2022-09-18T02:40:43.664Z,11.50
2022-09-18T02:50:59.090Z,11.50
2022-09-18T03:01:06.671Z,11.50
2022-09-18T03:11:13.280Z,11.50
2022-09-18T03:21:16.901Z,11.50
2022-09-18T03:31:21.981Z,11.60
2022-09-18T03:41:25.701Z,11.50
2022-09-18T03:51:30.827Z,11.60
2022-09-18T04:01:35.729Z,11.60
2022-09-18T04:11:40.826Z,11.60
2022-09-18T04:21:44.782Z,11.70
2022-09-18T04:31:50.013Z,11.80
2022-09-18T04:41:57.983Z,11.80
2022-09-18T04:52:05.954Z,11.90
2022-09-18T05:02:12.282Z,11.80
2022-09-18T05:12:17.292Z,11.90
2022-09-18T05:22:20.871Z,11.90
2022-09-18T05:32:26.859Z,11.80
2022-09-18T05:42:30.507Z,11.90
2022-09-18T05:52:35.658Z,12.00
2022-09-18T06:02:39.265Z,12.00
2022-09-18T06:12:44.562Z,11.90
2022-09-18T06:22:48.239Z,12.00
2022-09-18T06:33:03.278Z,12.10
2022-09-18T06:43:10.698Z,12.30
2022-09-18T06:53:15.679Z,12.40
2022-09-18T07:03:20.335Z,12.40
2022-09-18T07:13:25.365Z,12.40
2022-09-18T07:23:33.022Z,12.60
2022-09-18T07:33:38.182Z,12.60
2022-09-18T07:43:41.913Z,12.60
2022-09-18T07:53:50.444Z,12.80
2022-09-18T08:03:54.046Z,12.70
2022-09-18T08:13:59.113Z,12.60
2022-09-18T08:24:03.616Z,12.30
2022-09-18T08:34:10.118Z,12.40
2022-09-18T08:44:18.035Z,12.60
2022-09-18T08:54:36.079Z,12.60
2022-09-18T09:04:39.903Z,12.80
2022-09-18T09:15:12.092Z,13.20
2022-09-18T09:25:23.716Z,13.40
2022-09-18T09:35:33.597Z,13.50
2022-09-18T09:45:46.215Z,13.50
2022-09-18T09:56:03.914Z,13.80
2022-09-18T10:06:24.574Z,13.80
2022-09-18T10:16:35.796Z,13.60
2022-09-18T10:26:46.011Z,14.20
2022-09-18T10:36:50.990Z,14.40
2022-09-18T10:47:05.094Z,14.60
2022-09-18T11:07:48.229Z,14.40
2022-09-18T11:17:55.368Z,14.50
2022-09-18T11:28:03.645Z,14.50
2022-09-18T11:38:12.066Z,14.30
2022-09-18T11:48:29.556Z,14.30
2022-09-18T11:58:41.420Z,14.30
2022-09-18T12:08:54.055Z,14.10
2022-09-18T12:19:04.706Z,14.00
2022-09-18T12:29:33.323Z,14.40
2022-09-18T12:40:04.499Z,14.60
2022-09-18T12:50:32.519Z,14.70
2022-09-18T13:00:39.960Z,14.80
2022-09-18T13:10:49.836Z,14.90
2022-09-18T13:20:58.425Z,15.00
2022-09-18T13:31:26.368Z,14.90
2022-09-18T13:41:42.304Z,14.70
2022-09-18T13:51:47.681Z,14.40
2022-09-18T14:02:02.841Z,14.30
2022-09-18T14:12:14.528Z,14.30
2022-09-18T14:22:25.714Z,14.30
2022-09-18T14:32:31.621Z,14.10
2022-09-18T14:42:41.184Z,14.00
2022-09-18T14:52:49.237Z,14.10
2022-09-18T15:02:56.451Z,14.00
2022-09-18T15:13:07.028Z,14.00
2022-09-18T15:23:30.253Z,14.10
2022-09-18T15:33:40.549Z,13.90
2022-09-18T15:43:51.363Z,13.70
2022-09-18T15:54:31.237Z,13.60
2022-09-18T16:04:43.773Z,13.50
2022-09-18T16:15:01.912Z,13.30
2022-09-18T16:25:17.627Z,13.10
2022-09-18T16:35:22.664Z,13.00
2022-09-18T16:45:28.694Z,13.00
2022-09-18T16:55:45.686Z,12.80
2022-09-18T17:05:49.410Z,12.70
2022-09-18T17:16:00.097Z,12.60
2022-09-18T17:26:08.932Z,12.60
2022-09-18T17:36:18.086Z,12.20
2022-09-18T17:46:22.183Z,12.00
2022-09-18T17:56:29.858Z,12.00
2022-09-18T18:06:33.815Z,12.00
2022-09-18T18:16:41.142Z,12.00
2022-09-18T18:26:48.080Z,12.00
2022-09-18T18:36:54.719Z,11.90
2022-09-18T18:46:59.106Z,11.80
2022-09-18T18:57:08.148Z,11.60
2022-09-18T19:07:11.953Z,10.80
2022-09-18T19:17:17.265Z,10.30
2022-09-18T19:27:20.944Z,10.20
2022-09-18T19:37:26.053Z,10.00
2022-09-18T19:47:36.117Z,9.90
2022-09-18T19:57:42.026Z,9.80
2022-09-18T20:07:46.009Z,9.70
2022-09-18T20:17:55.579Z,9.70
2022-09-18T20:27:59.330Z,10.00
2022-09-18T20:38:05.437Z,10.10
2022-09-18T20:48:12.838Z,10.10
2022-09-18T20:58:19.714Z,10.10
2022-09-18T21:08:25.163Z,10.10
2022-09-18T21:18:30.142Z,10.00
2022-09-18T21:28:33.744Z,9.90
2022-09-18T21:38:39.935Z,9.70
2022-09-18T21:48:44.208Z,9.70
2022-09-18T21:58:49.827Z,9.40
2022-09-18T22:08:57.413Z,9.40
2022-09-18T22:19:02.890Z,9.30
2022-09-18T22:29:08.428Z,9.30
2022-09-18T22:39:14.855Z,9.30
2022-09-18T22:49:20.003Z,9.30
2022-09-18T22:59:27.024Z,9.30
2022-09-18T23:09:31.338Z,9.40
2022-09-18T23:19:36.609Z,9.30
2022-09-18T23:29:41.083Z,9.30
2022-09-18T23:39:46.008Z,9.50
2022-09-18T23:49:49.666Z,9.50
2022-09-18T23:59:58.511Z,9.60
